sensor_id;sensor_type;location;lat;lon;timestamp;temperature;humidity
9861;DHT22;4969;52.304;4.968;2023-09-19T00:00:15;18.34;70.20
9861;DHT22;4969;52.304;4.968;2023-09-19T00:02:46;18.37;75.95
9861;DHT22;4969;52.304;4.968;2023-09-19T00:05:13;18.93;73.27
9861;DHT22;4969;52.304;4.968;2023-09-19T00:07:40;19.00;69.43
9861;DHT22;4969;52.304;4.968;2023-09-19T00:10:07;19.38;73.28
9861;DHT22;4969;52.304;4.968;2023-09-19T00:12:35;18.64;59.96
9861;DHT22;4969;52.304;4.968;2023-09-19T00:15:01;18.27;66.10
9861;DHT22;4969;52.304;4.968;2023-09-19T00:17:30;18.24;69.21
9861;DHT22;4969;52.304;4.968;2023-09-19T00:19:58;18.58;68.04
9861;DHT22;4969;52.304;4.968;2023-09-19T00:22:39;18.52;65.67
9861;DHT22;4969;52.304;4.968;2023-09-19T00:25:06;18.69;62.84
9861;DHT22;4969;52.304;4.968;2023-09-19T00:27:33;18.59;67.93
9861;DHT22;4969;52.304;4.968;2023-09-19T00:30:00;18.71;71.34
9861;DHT22;4969;52.304;4.968;2023-09-19T00:32:26;18.54;65.10
9861;DHT22;4969;52.304;4.968;2023-09-19T00:34:56;18.75;67.04
9861;DHT22;4969;52.304;4.968;2023-09-19T00:37:24;18.76;66.08
9861;DHT22;4969;52.304;4.968;2023-09-19T00:39:51;18.97;69.32
9861;DHT22;4969;52.304;4.968;2023-09-19T00:42:18;18.90;66.92
9861;DHT22;4969;52.304;4.968;2023-09-19T00:44:46;19.04;67.11
9861;DHT22;4969;52.304;4.968;2023-09-19T00:47:12;18.85;67.07
9861;DHT22;4969;52.304;4.968;2023-09-19T00:49:42;18.54;64.38
9861;DHT22;4969;52.304;4.968;2023-09-19T00:52:10;18.52;66.84
9861;DHT22;4969;52.304;4.968;2023-09-19T00:54:38;18.79;70.37
9861;DHT22;4969;52.304;4.968;2023-09-19T00:57:05;18.86;71.46
9861;DHT22;4969;52.304;4.968;2023-09-19T00:59:33;19.00;68.47
9861;DHT22;4969;52.304;4.968;2023-09-19T01:02:01;19.42;71.79
9861;DHT22;4969;52.304;4.968;2023-09-19T01:04:28;19.17;66.96
9861;DHT22;4969;52.304;4.968;2023-09-19T01:06:55;18.69;62.31
9861;DHT22;4969;52.304;4.968;2023-09-19T01:09:23;18.90;69.50
9861;DHT22;4969;52.304;4.968;2023-09-19T01:11:53;20.00;73.44
9861;DHT22;4969;52.304;4.968;2023-09-19T01:14:31;20.17;71.31
9861;DHT22;4969;52.304;4.968;2023-09-19T01:17:04;20.33;69.61
9861;DHT22;4969;52.304;4.968;2023-09-19T01:19:58;20.26;69.24
9861;DHT22;4969;52.304;4.968;2023-09-19T01:22:37;20.28;69.11
9861;DHT22;4969;52.304;4.968;2023-09-19T01:25:26;20.72;66.44
9861;DHT22;4969;52.304;4.968;2023-09-19T01:28:07;21.18;68.13
9861;DHT22;4969;52.304;4.968;2023-09-19T01:30:40;21.50;65.39
9861;DHT22;4969;52.304;4.968;2023-09-19T01:33:09;21.55;68.31
9861;DHT22;4969;52.304;4.968;2023-09-19T01:35:37;20.98;62.76
9861;DHT22;4969;52.304;4.968;2023-09-19T01:38:04;19.97;62.69
9861;DHT22;4969;52.304;4.968;2023-09-19T01:40:34;19.80;67.55
9861;DHT22;4969;52.304;4.968;2023-09-19T01:43:09;19.85;70.32
9861;DHT22;4969;52.304;4.968;2023-09-19T01:45:45;20.61;67.57
9861;DHT22;4969;52.304;4.968;2023-09-19T01:48:20;20.51;66.32
9861;DHT22;4969;52.304;4.968;2023-09-19T01:50:55;20.52;65.34
9861;DHT22;4969;52.304;4.968;2023-09-19T01:53:27;20.89;68.42
9861;DHT22;4969;52.304;4.968;2023-09-19T01:55:57;21.31;68.46
9861;DHT22;4969;52.304;4.968;2023-09-19T01:58:29;21.18;65.42
9861;DHT22;4969;52.304;4.968;2023-09-19T02:01:01;21.27;68.29
9861;DHT22;4969;52.304;4.968;2023-09-19T02:03:31;21.50;67.05
9861;DHT22;4969;52.304;4.968;2023-09-19T02:05:58;21.30;63.95
9861;DHT22;4969;52.304;4.968;2023-09-19T02:08:25;21.07;66.88
9861;DHT22;4969;52.304;4.968;2023-09-19T02:10:52;21.40;67.25
9861;DHT22;4969;52.304;4.968;2023-09-19T02:13:19;20.61;64.08
9861;DHT22;4969;52.304;4.968;2023-09-19T02:15:47;21.17;68.46
9861;DHT22;4969;52.304;4.968;2023-09-19T02:18:15;21.09;67.62
9861;DHT22;4969;52.304;4.968;2023-09-19T02:20:42;20.76;66.87
9861;DHT22;4969;52.304;4.968;2023-09-19T02:23:10;20.58;65.75
9861;DHT22;4969;52.304;4.968;2023-09-19T02:25:36;20.51;63.95
9861;DHT22;4969;52.304;4.968;2023-09-19T02:28:04;20.93;69.38
9861;DHT22;4969;52.304;4.968;2023-09-19T02:30:31;20.61;65.67
9861;DHT22;4969;52.304;4.968;2023-09-19T02:32:57;20.65;68.26
9861;DHT22;4969;52.304;4.968;2023-09-19T02:35:28;20.12;60.51
9861;DHT22;4969;52.304;4.968;2023-09-19T02:37:58;19.90;65.64
9861;DHT22;4969;52.304;4.968;2023-09-19T02:40:25;20.18;64.45
9861;DHT22;4969;52.304;4.968;2023-09-19T02:42:54;20.34;65.62
9861;DHT22;4969;52.304;4.968;2023-09-19T02:45:21;20.00;67.95
9861;DHT22;4969;52.304;4.968;2023-09-19T02:47:48;19.96;71.03
9861;DHT22;4969;52.304;4.968;2023-09-19T02:50:16;19.42;69.93
9861;DHT22;4969;52.304;4.968;2023-09-19T02:52:45;19.71;70.83
9861;DHT22;4969;52.304;4.968;2023-09-19T02:55:12;20.58;70.60
9861;DHT22;4969;52.304;4.968;2023-09-19T02:57:45;20.51;68.07
9861;DHT22;4969;52.304;4.968;2023-09-19T03:00:13;20.90;69.53
9861;DHT22;4969;52.304;4.968;2023-09-19T03:02:40;20.75;66.24
9861;DHT22;4969;52.304;4.968;2023-09-19T03:05:07;20.79;67.90
9861;DHT22;4969;52.304;4.968;2023-09-19T03:07:36;20.76;68.28
9861;DHT22;4969;52.304;4.968;2023-09-19T03:10:06;20.61;66.96
9861;DHT22;4969;52.304;4.968;2023-09-19T03:12:33;21.14;68.26
9861;DHT22;4969;52.304;4.968;2023-09-19T03:14:59;20.93;67.03
9861;DHT22;4969;52.304;4.968;2023-09-19T03:17:26;21.69;65.82
9861;DHT22;4969;52.304;4.968;2023-09-19T03:19:53;21.14;61.96
9861;DHT22;4969;52.304;4.968;2023-09-19T03:22:20;20.96;62.95
9861;DHT22;4969;52.304;4.968;2023-09-19T03:24:47;21.21;68.45
9861;DHT22;4969;52.304;4.968;2023-09-19T03:27:15;20.72;63.08
9861;DHT22;4969;52.304;4.968;2023-09-19T03:29:41;20.59;65.39
9861;DHT22;4969;52.304;4.968;2023-09-19T03:32:08;19.90;67.83
9861;DHT22;4969;52.304;4.968;2023-09-19T03:34:36;20.18;67.60
9861;DHT22;4969;52.304;4.968;2023-09-19T03:37:03;21.00;64.10
9861;DHT22;4969;52.304;4.968;2023-09-19T03:39:30;20.21;69.52
9861;DHT22;4969;52.304;4.968;2023-09-19T03:41:57;20.10;66.50
9861;DHT22;4969;52.304;4.968;2023-09-19T03:44:25;20.85;67.99
9861;DHT22;4969;52.304;4.968;2023-09-19T03:46:51;20.43;62.19
9861;DHT22;4969;52.304;4.968;2023-09-19T03:49:18;19.90;63.84
9861;DHT22;4969;52.304;4.968;2023-09-19T03:51:44;19.86;62.22
9861;DHT22;4969;52.304;4.968;2023-09-19T03:54:11;20.00;66.37
9861;DHT22;4969;52.304;4.968;2023-09-19T03:56:38;19.78;71.33
9861;DHT22;4969;52.304;4.968;2023-09-19T03:59:04;19.68;62.96
9861;DHT22;4969;52.304;4.968;2023-09-19T04:01:35;19.50;66.73
9861;DHT22;4969;52.304;4.968;2023-09-19T04:04:02;19.62;67.61
9861;DHT22;4969;52.304;4.968;2023-09-19T04:06:33;19.96;64.99
9861;DHT22;4969;52.304;4.968;2023-09-19T04:09:00;19.87;68.84
9861;DHT22;4969;52.304;4.968;2023-09-19T04:11:27;20.03;71.56
9861;DHT22;4969;52.304;4.968;2023-09-19T04:13:56;19.87;62.93
9861;DHT22;4969;52.304;4.968;2023-09-19T04:16:23;19.76;68.06
9861;DHT22;4969;52.304;4.968;2023-09-19T04:18:51;19.79;70.59
9861;DHT22;4969;52.304;4.968;2023-09-19T04:21:17;19.78;68.01
9861;DHT22;4969;52.304;4.968;2023-09-19T04:23:45;19.86;69.78
9861;DHT22;4969;52.304;4.968;2023-09-19T04:26:11;19.80;68.41
9861;DHT22;4969;52.304;4.968;2023-09-19T04:28:38;20.62;69.90
9861;DHT22;4969;52.304;4.968;2023-09-19T04:31:06;20.09;63.96
9861;DHT22;4969;52.304;4.968;2023-09-19T04:33:33;19.73;67.85
9861;DHT22;4969;52.304;4.968;2023-09-19T04:36:01;19.92;67.91
9861;DHT22;4969;52.304;4.968;2023-09-19T04:38:32;19.73;64.55
9861;DHT22;4969;52.304;4.968;2023-09-19T04:40:59;19.62;68.19
9861;DHT22;4969;52.304;4.968;2023-09-19T04:43:25;20.31;69.98
9861;DHT22;4969;52.304;4.968;2023-09-19T04:45:52;20.62;60.85
9861;DHT22;4969;52.304;4.968;2023-09-19T04:48:21;20.26;66.17
9861;DHT22;4969;52.304;4.968;2023-09-19T04:50:50;20.21;69.76
9861;DHT22;4969;52.304;4.968;2023-09-19T04:53:18;20.06;67.63
9861;DHT22;4969;52.304;4.968;2023-09-19T04:55:49;19.78;70.08
9861;DHT22;4969;52.304;4.968;2023-09-19T04:58:16;19.23;67.97
9861;DHT22;4969;52.304;4.968;2023-09-19T05:00:43;18.78;72.25
9861;DHT22;4969;52.304;4.968;2023-09-19T05:03:10;18.64;69.82
9861;DHT22;4969;52.304;4.968;2023-09-19T05:05:36;18.44;69.35
9861;DHT22;4969;52.304;4.968;2023-09-19T05:08:04;18.20;69.33
9861;DHT22;4969;52.304;4.968;2023-09-19T05:10:32;18.72;73.91
9861;DHT22;4969;52.304;4.968;2023-09-19T05:12:59;18.43;69.58
9861;DHT22;4969;52.304;4.968;2023-09-19T05:15:26;18.95;71.64
9861;DHT22;4969;52.304;4.968;2023-09-19T05:17:53;18.86;70.64
9861;DHT22;4969;52.304;4.968;2023-09-19T05:20:21;19.23;73.12
9861;DHT22;4969;52.304;4.968;2023-09-19T05:22:58;19.72;73.08
9861;DHT22;4969;52.304;4.968;2023-09-19T05:25:26;19.99;69.75
9861;DHT22;4969;52.304;4.968;2023-09-19T05:27:56;20.16;71.33
9861;DHT22;4969;52.304;4.968;2023-09-19T05:30:24;20.81;68.44
9861;DHT22;4969;52.304;4.968;2023-09-19T05:32:52;20.82;67.39
9861;DHT22;4969;52.304;4.968;2023-09-19T05:35:19;20.62;66.89
9861;DHT22;4969;52.304;4.968;2023-09-19T05:37:46;20.58;67.92
9861;DHT22;4969;52.304;4.968;2023-09-19T05:40:14;20.35;67.52
9861;DHT22;4969;52.304;4.968;2023-09-19T05:42:41;20.47;66.20
9861;DHT22;4969;52.304;4.968;2023-09-19T05:45:10;20.71;65.33
9861;DHT22;4969;52.304;4.968;2023-09-19T05:47:38;20.17;67.41
9861;DHT22;4969;52.304;4.968;2023-09-19T05:50:06;20.78;67.99
9861;DHT22;4969;52.304;4.968;2023-09-19T05:52:34;20.37;68.60
9861;DHT22;4969;52.304;4.968;2023-09-19T05:55:00;20.92;68.10
9861;DHT22;4969;52.304;4.968;2023-09-19T05:57:30;20.90;66.69
9861;DHT22;4969;52.304;4.968;2023-09-19T05:59:57;20.56;68.08
9861;DHT22;4969;52.304;4.968;2023-09-19T06:02:24;19.86;66.75
9861;DHT22;4969;52.304;4.968;2023-09-19T06:04:54;20.16;68.81
9861;DHT22;4969;52.304;4.968;2023-09-19T06:07:20;20.59;68.43
9861;DHT22;4969;52.304;4.968;2023-09-19T06:09:47;20.54;67.05
9861;DHT22;4969;52.304;4.968;2023-09-19T06:12:14;20.21;69.85
9861;DHT22;4969;52.304;4.968;2023-09-19T06:14:42;20.58;67.55
9861;DHT22;4969;52.304;4.968;2023-09-19T06:17:09;21.04;66.23
9861;DHT22;4969;52.304;4.968;2023-09-19T06:19:37;21.03;67.70
9861;DHT22;4969;52.304;4.968;2023-09-19T06:22:04;21.44;62.84
9861;DHT22;4969;52.304;4.968;2023-09-19T06:24:30;21.18;66.24
9861;DHT22;4969;52.304;4.968;2023-09-19T06:26:57;20.75;64.87
9861;DHT22;4969;52.304;4.968;2023-09-19T06:29:27;20.59;66.43
9861;DHT22;4969;52.304;4.968;2023-09-19T06:31:53;20.85;67.32
9861;DHT22;4969;52.304;4.968;2023-09-19T06:34:20;21.14;63.22
9861;DHT22;4969;52.304;4.968;2023-09-19T06:36:49;21.00;65.84
9861;DHT22;4969;52.304;4.968;2023-09-19T06:39:17;20.85;65.38
9861;DHT22;4969;52.304;4.968;2023-09-19T06:41:44;20.81;66.72
9861;DHT22;4969;52.304;4.968;2023-09-19T06:44:11;20.16;68.38
9861;DHT22;4969;52.304;4.968;2023-09-19T06:46:38;20.43;66.69
9861;DHT22;4969;52.304;4.968;2023-09-19T06:49:06;21.14;67.29
9861;DHT22;4969;52.304;4.968;2023-09-19T06:51:32;21.02;68.39
9861;DHT22;4969;52.304;4.968;2023-09-19T06:54:03;20.73;64.56
9861;DHT22;4969;52.304;4.968;2023-09-19T06:56:30;20.98;63.14
9861;DHT22;4969;52.304;4.968;2023-09-19T06:58:57;20.71;68.94
9861;DHT22;4969;52.304;4.968;2023-09-19T07:01:24;20.98;66.18
9861;DHT22;4969;52.304;4.968;2023-09-19T07:03:50;20.72;65.33
9861;DHT22;4969;52.304;4.968;2023-09-19T07:06:18;21.11;63.44
9861;DHT22;4969;52.304;4.968;2023-09-19T07:08:45;20.99;67.53
9861;DHT22;4969;52.304;4.968;2023-09-19T07:11:13;20.68;66.59
9861;DHT22;4969;52.304;4.968;2023-09-19T07:13:39;20.71;68.04
9861;DHT22;4969;52.304;4.968;2023-09-19T07:16:06;21.02;68.88
9861;DHT22;4969;52.304;4.968;2023-09-19T07:18:34;20.56;67.32
9861;DHT22;4969;52.304;4.968;2023-09-19T07:21:02;20.48;67.05
9861;DHT22;4969;52.304;4.968;2023-09-19T07:23:31;21.38;68.41
9861;DHT22;4969;52.304;4.968;2023-09-19T07:26:00;21.20;63.48
9861;DHT22;4969;52.304;4.968;2023-09-19T07:28:28;21.09;67.08
9861;DHT22;4969;52.304;4.968;2023-09-19T07:30:55;20.67;69.70
9861;DHT22;4969;52.304;4.968;2023-09-19T07:33:21;20.41;64.78
9861;DHT22;4969;52.304;4.968;2023-09-19T07:35:50;20.54;69.31
9861;DHT22;4969;52.304;4.968;2023-09-19T07:38:17;20.40;70.76
9861;DHT22;4969;52.304;4.968;2023-09-19T07:40:44;20.37;64.52
9861;DHT22;4969;52.304;4.968;2023-09-19T07:43:10;20.73;70.19
9861;DHT22;4969;52.304;4.968;2023-09-19T07:45:38;20.52;66.33
9861;DHT22;4969;52.304;4.968;2023-09-19T07:48:05;21.50;66.93
9861;DHT22;4969;52.304;4.968;2023-09-19T07:50:39;21.68;67.22
9861;DHT22;4969;52.304;4.968;2023-09-19T07:53:05;21.02;63.83
9861;DHT22;4969;52.304;4.968;2023-09-19T07:55:32;20.43;67.02
9861;DHT22;4969;52.304;4.968;2023-09-19T07:57:59;20.54;68.55
9861;DHT22;4969;52.304;4.968;2023-09-19T08:00:27;21.10;68.43
9861;DHT22;4969;52.304;4.968;2023-09-19T08:02:59;21.06;64.76
9861;DHT22;4969;52.304;4.968;2023-09-19T08:05:31;20.98;64.95
9861;DHT22;4969;52.304;4.968;2023-09-19T08:08:06;21.16;67.22
9861;DHT22;4969;52.304;4.968;2023-09-19T08:10:38;21.20;68.76
9861;DHT22;4969;52.304;4.968;2023-09-19T08:13:13;21.64;69.03
9861;DHT22;4969;52.304;4.968;2023-09-19T08:15:50;21.92;63.70
9861;DHT22;4969;52.304;4.968;2023-09-19T08:18:24;21.50;61.98
9861;DHT22;4969;52.304;4.968;2023-09-19T08:20:58;21.40;66.77
9861;DHT22;4969;52.304;4.968;2023-09-19T08:23:29;20.82;66.26
9861;DHT22;4969;52.304;4.968;2023-09-19T08:26:00;21.20;68.31
9861;DHT22;4969;52.304;4.968;2023-09-19T08:28:34;20.75;67.63
9861;DHT22;4969;52.304;4.968;2023-09-19T08:31:14;21.37;68.63
9861;DHT22;4969;52.304;4.968;2023-09-19T08:33:47;20.69;66.37
9861;DHT22;4969;52.304;4.968;2023-09-19T08:36:17;21.18;71.22
9861;DHT22;4969;52.304;4.968;2023-09-19T08:38:49;21.58;66.06
9861;DHT22;4969;52.304;4.968;2023-09-19T08:41:19;20.85;65.84
9861;DHT22;4969;52.304;4.968;2023-09-19T08:43:52;21.40;68.76
9861;DHT22;4969;52.304;4.968;2023-09-19T08:46:30;21.64;66.18
9861;DHT22;4969;52.304;4.968;2023-09-19T08:49:03;21.82;67.07
9861;DHT22;4969;52.304;4.968;2023-09-19T08:51:41;22.05;62.87
9861;DHT22;4969;52.304;4.968;2023-09-19T08:54:16;21.36;68.22
9861;DHT22;4969;52.304;4.968;2023-09-19T08:56:55;21.27;67.31
9861;DHT22;4969;52.304;4.968;2023-09-19T08:59:30;21.62;68.27
9861;DHT22;4969;52.304;4.968;2023-09-19T09:02:01;21.66;68.01
9861;DHT22;4969;52.304;4.968;2023-09-19T09:04:40;21.45;64.37
9861;DHT22;4969;52.304;4.968;2023-09-19T09:07:12;21.81;64.23
9861;DHT22;4969;52.304;4.968;2023-09-19T09:09:39;21.92;67.50
9861;DHT22;4969;52.304;4.968;2023-09-19T09:12:09;22.27;67.47
9861;DHT22;4969;52.304;4.968;2023-09-19T09:14:39;22.13;62.90
9861;DHT22;4969;52.304;4.968;2023-09-19T09:17:20;22.43;65.11
9861;DHT22;4969;52.304;4.968;2023-09-19T09:20:19;22.06;66.59
9861;DHT22;4969;52.304;4.968;2023-09-19T09:22:51;21.81;68.35
9861;DHT22;4969;52.304;4.968;2023-09-19T09:25:50;21.91;68.31
9861;DHT22;4969;52.304;4.968;2023-09-19T09:28:30;21.91;66.32
9861;DHT22;4969;52.304;4.968;2023-09-19T09:31:01;21.89;64.47
9861;DHT22;4969;52.304;4.968;2023-09-19T09:33:38;21.43;62.80
9861;DHT22;4969;52.304;4.968;2023-09-19T09:36:13;21.64;68.55
9861;DHT22;4969;52.304;4.968;2023-09-19T09:38:47;22.06;66.05
9861;DHT22;4969;52.304;4.968;2023-09-19T09:41:18;22.23;65.61
9861;DHT22;4969;52.304;4.968;2023-09-19T09:44:13;22.13;67.40
9861;DHT22;4969;52.304;4.968;2023-09-19T09:46:45;21.83;62.31
9861;DHT22;4969;52.304;4.968;2023-09-19T09:49:51;21.92;64.89
9861;DHT22;4969;52.304;4.968;2023-09-19T09:52:47;21.23;69.11
9861;DHT22;4969;52.304;4.968;2023-09-19T09:55:18;21.54;62.78
9861;DHT22;4969;52.304;4.968;2023-09-19T10:00:57;22.05;66.93
9861;DHT22;4969;52.304;4.968;2023-09-19T10:03:35;22.33;63.63
9861;DHT22;4969;52.304;4.968;2023-09-19T10:06:13;21.89;62.22
9861;DHT22;4969;52.304;4.968;2023-09-19T10:11:58;22.23;64.45
9861;DHT22;4969;52.304;4.968;2023-09-19T10:14:33;22.23;63.40
9861;DHT22;4969;52.304;4.968;2023-09-19T10:17:23;21.95;63.68
9861;DHT22;4969;52.304;4.968;2023-09-19T10:19:55;22.23;63.76
9861;DHT22;4969;52.304;4.968;2023-09-19T10:22:27;22.23;62.16
9861;DHT22;4969;52.304;4.968;2023-09-19T10:27:32;22.43;62.95
9861;DHT22;4969;52.304;4.968;2023-09-19T10:30:05;22.36;65.51
9861;DHT22;4969;52.304;4.968;2023-09-19T10:32:34;22.57;66.83
9861;DHT22;4969;52.304;4.968;2023-09-19T10:35:02;21.88;64.79
9861;DHT22;4969;52.304;4.968;2023-09-19T10:37:32;22.13;66.15
9861;DHT22;4969;52.304;4.968;2023-09-19T10:40:00;21.89;63.40
9861;DHT22;4969;52.304;4.968;2023-09-19T10:42:27;21.88;62.99
9861;DHT22;4969;52.304;4.968;2023-09-19T10:44:57;22.09;66.16
9861;DHT22;4969;52.304;4.968;2023-09-19T10:47:26;22.37;62.37
9861;DHT22;4969;52.304;4.968;2023-09-19T10:49:53;22.30;61.65
9861;DHT22;4969;52.304;4.968;2023-09-19T10:52:23;21.73;63.71
9861;DHT22;4969;52.304;4.968;2023-09-19T10:54:52;22.09;65.25
9861;DHT22;4969;52.304;4.968;2023-09-19T10:57:22;22.30;62.32
9861;DHT22;4969;52.304;4.968;2023-09-19T11:00:04;21.69;66.54
9861;DHT22;4969;52.304;4.968;2023-09-19T11:03:17;22.08;63.19
9861;DHT22;4969;52.304;4.968;2023-09-19T11:06:04;22.20;64.81
9861;DHT22;4969;52.304;4.968;2023-09-19T11:08:57;22.37;62.07
9861;DHT22;4969;52.304;4.968;2023-09-19T11:11:42;22.08;60.60
9861;DHT22;4969;52.304;4.968;2023-09-19T11:14:15;21.92;63.11
9861;DHT22;4969;52.304;4.968;2023-09-19T11:23:19;21.96;62.73
9861;DHT22;4969;52.304;4.968;2023-09-19T11:25:52;22.10;67.07
9861;DHT22;4969;52.304;4.968;2023-09-19T11:28:35;22.12;66.04
9861;DHT22;4969;52.304;4.968;2023-09-19T11:34:42;22.16;64.99
9861;DHT22;4969;52.304;4.968;2023-09-19T11:40:29;22.02;66.75
9861;DHT22;4969;52.304;4.968;2023-09-19T11:42:56;22.02;65.81
9861;DHT22;4969;52.304;4.968;2023-09-19T11:48:31;21.92;65.20
9861;DHT22;4969;52.304;4.968;2023-09-19T11:50:58;22.37;65.05
9861;DHT22;4969;52.304;4.968;2023-09-19T11:53:31;21.50;62.47
9861;DHT22;4969;52.304;4.968;2023-09-19T11:56:05;21.34;61.86
9861;DHT22;4969;52.304;4.968;2023-09-19T11:58:36;21.72;64.23
9861;DHT22;4969;52.304;4.968;2023-09-19T12:01:05;21.71;66.45
9861;DHT22;4969;52.304;4.968;2023-09-19T12:03:35;22.21;61.53
9861;DHT22;4969;52.304;4.968;2023-09-19T12:06:11;22.44;64.72
9861;DHT22;4969;52.304;4.968;2023-09-19T12:08:40;21.96;65.02
9861;DHT22;4969;52.304;4.968;2023-09-19T12:11:12;21.51;61.08
9861;DHT22;4969;52.304;4.968;2023-09-19T12:13:44;21.37;65.53
9861;DHT22;4969;52.304;4.968;2023-09-19T12:16:16;21.69;62.86
9861;DHT22;4969;52.304;4.968;2023-09-19T12:18:44;21.31;62.82
9861;DHT22;4969;52.304;4.968;2023-09-19T12:21:25;21.43;64.88
9861;DHT22;4969;52.304;4.968;2023-09-19T12:24:07;21.61;65.85
9861;DHT22;4969;52.304;4.968;2023-09-19T12:26:43;21.88;64.95
9861;DHT22;4969;52.304;4.968;2023-09-19T12:29:15;21.59;63.90
9861;DHT22;4969;52.304;4.968;2023-09-19T12:31:48;21.68;68.95
9861;DHT22;4969;52.304;4.968;2023-09-19T12:34:16;21.33;68.22
9861;DHT22;4969;52.304;4.968;2023-09-19T12:36:45;21.24;66.97
9861;DHT22;4969;52.304;4.968;2023-09-19T12:39:22;21.30;65.78
9861;DHT22;4969;52.304;4.968;2023-09-19T12:41:51;21.40;69.16
9861;DHT22;4969;52.304;4.968;2023-09-19T12:44:18;21.81;66.29
9861;DHT22;4969;52.304;4.968;2023-09-19T12:46:45;22.00;66.53
9861;DHT22;4969;52.304;4.968;2023-09-19T12:49:15;22.24;65.73
9861;DHT22;4969;52.304;4.968;2023-09-19T12:51:43;22.23;65.07
9861;DHT22;4969;52.304;4.968;2023-09-19T12:54:10;22.02;66.01
9861;DHT22;4969;52.304;4.968;2023-09-19T12:56:39;22.28;64.12
9861;DHT22;4969;52.304;4.968;2023-09-19T12:59:08;21.99;67.11
9861;DHT22;4969;52.304;4.968;2023-09-19T13:01:35;21.89;63.69
9861;DHT22;4969;52.304;4.968;2023-09-19T13:04:15;22.23;64.39
9861;DHT22;4969;52.304;4.968;2023-09-19T13:06:45;21.83;64.25
9861;DHT22;4969;52.304;4.968;2023-09-19T13:09:14;22.72;65.22
9861;DHT22;4969;52.304;4.968;2023-09-19T13:11:41;22.23;64.00
9861;DHT22;4969;52.304;4.968;2023-09-19T13:14:21;22.60;65.46
9861;DHT22;4969;52.304;4.968;2023-09-19T13:16:59;22.68;65.19
9861;DHT22;4969;52.304;4.968;2023-09-19T13:19:43;21.96;63.64
9861;DHT22;4969;52.304;4.968;2023-09-19T13:22:36;22.38;64.79
9861;DHT22;4969;52.304;4.968;2023-09-19T13:25:05;22.33;66.81
9861;DHT22;4969;52.304;4.968;2023-09-19T13:27:33;22.30;62.85
9861;DHT22;4969;52.304;4.968;2023-09-19T13:30:01;22.38;66.58
9861;DHT22;4969;52.304;4.968;2023-09-19T13:32:28;22.81;65.65
9861;DHT22;4969;52.304;4.968;2023-09-19T13:34:54;22.27;62.86
9861;DHT22;4969;52.304;4.968;2023-09-19T13:37:21;21.99;63.56
9861;DHT22;4969;52.304;4.968;2023-09-19T13:39:47;21.81;65.37
9861;DHT22;4969;52.304;4.968;2023-09-19T13:42:14;21.38;66.18
9861;DHT22;4969;52.304;4.968;2023-09-19T13:44:41;21.93;68.03
9861;DHT22;4969;52.304;4.968;2023-09-19T13:47:10;21.75;65.44
9861;DHT22;4969;52.304;4.968;2023-09-19T13:49:39;21.92;64.25
9861;DHT22;4969;52.304;4.968;2023-09-19T13:52:05;21.71;64.91
9861;DHT22;4969;52.304;4.968;2023-09-19T13:54:32;21.55;66.19
9861;DHT22;4969;52.304;4.968;2023-09-19T13:56:59;21.69;66.78
9861;DHT22;4969;52.304;4.968;2023-09-19T13:59:26;21.23;68.01
9861;DHT22;4969;52.304;4.968;2023-09-19T14:01:54;21.83;65.97
9861;DHT22;4969;52.304;4.968;2023-09-19T14:04:22;21.83;66.02
9861;DHT22;4969;52.304;4.968;2023-09-19T14:06:48;21.88;65.53
9861;DHT22;4969;52.304;4.968;2023-09-19T14:09:15;21.93;67.09
9861;DHT22;4969;52.304;4.968;2023-09-19T14:11:44;21.99;67.75
9861;DHT22;4969;52.304;4.968;2023-09-19T14:14:12;21.62;66.14
9861;DHT22;4969;52.304;4.968;2023-09-19T14:16:40;21.96;68.85
9861;DHT22;4969;52.304;4.968;2023-09-19T14:19:07;21.91;68.49
9861;DHT22;4969;52.304;4.968;2023-09-19T14:21:35;22.26;66.85
9861;DHT22;4969;52.304;4.968;2023-09-19T14:24:04;22.54;64.88
9861;DHT22;4969;52.304;4.968;2023-09-19T14:26:34;22.41;65.30
9861;DHT22;4969;52.304;4.968;2023-09-19T14:29:01;22.31;66.70
9861;DHT22;4969;52.304;4.968;2023-09-19T14:31:28;22.14;66.44
9861;DHT22;4969;52.304;4.968;2023-09-19T14:33:55;21.47;65.74
9861;DHT22;4969;52.304;4.968;2023-09-19T14:36:22;21.27;68.41
9861;DHT22;4969;52.304;4.968;2023-09-19T14:38:52;22.16;67.88
9861;DHT22;4969;52.304;4.968;2023-09-19T14:41:20;21.83;66.05
9861;DHT22;4969;52.304;4.968;2023-09-19T14:43:46;21.85;66.36
9861;DHT22;4969;52.304;4.968;2023-09-19T14:46:13;21.65;68.25
9861;DHT22;4969;52.304;4.968;2023-09-19T14:48:40;21.69;68.27
9861;DHT22;4969;52.304;4.968;2023-09-19T14:51:07;22.12;66.00
9861;DHT22;4969;52.304;4.968;2023-09-19T14:53:35;21.58;68.71
9861;DHT22;4969;52.304;4.968;2023-09-19T14:56:04;21.95;66.23
9861;DHT22;4969;52.304;4.968;2023-09-19T14:58:33;21.54;65.17
9861;DHT22;4969;52.304;4.968;2023-09-19T15:01:04;21.73;66.76
9861;DHT22;4969;52.304;4.968;2023-09-19T15:03:31;21.82;67.44
9861;DHT22;4969;52.304;4.968;2023-09-19T15:05:59;21.47;67.28
9861;DHT22;4969;52.304;4.968;2023-09-19T15:08:27;21.34;67.19
9861;DHT22;4969;52.304;4.968;2023-09-19T15:10:53;21.95;65.39
9861;DHT22;4969;52.304;4.968;2023-09-19T15:13:22;21.61;66.58
9861;DHT22;4969;52.304;4.968;2023-09-19T15:15:58;21.88;67.44
9861;DHT22;4969;52.304;4.968;2023-09-19T15:18:25;21.54;67.82
9861;DHT22;4969;52.304;4.968;2023-09-19T15:20:51;21.64;67.20
9861;DHT22;4969;52.304;4.968;2023-09-19T15:23:18;21.54;69.64
9861;DHT22;4969;52.304;4.968;2023-09-19T15:25:48;21.55;67.92
9861;DHT22;4969;52.304;4.968;2023-09-19T15:28:15;21.33;68.27
9861;DHT22;4969;52.304;4.968;2023-09-19T15:30:43;21.00;71.80
9861;DHT22;4969;52.304;4.968;2023-09-19T15:33:10;21.27;69.02
9861;DHT22;4969;52.304;4.968;2023-09-19T15:35:36;21.72;69.84
9861;DHT22;4969;52.304;4.968;2023-09-19T15:38:03;21.20;68.00
9861;DHT22;4969;52.304;4.968;2023-09-19T15:40:30;21.24;68.83
9861;DHT22;4969;52.304;4.968;2023-09-19T15:42:57;21.66;69.75
9861;DHT22;4969;52.304;4.968;2023-09-19T15:45:23;21.78;67.93
9861;DHT22;4969;52.304;4.968;2023-09-19T15:47:52;21.04;67.89
9861;DHT22;4969;52.304;4.968;2023-09-19T15:50:19;20.89;71.29
9861;DHT22;4969;52.304;4.968;2023-09-19T15:52:52;21.14;69.97
9861;DHT22;4969;52.304;4.968;2023-09-19T15:55:20;21.13;70.30
9861;DHT22;4969;52.304;4.968;2023-09-19T15:57:46;20.72;69.67
9861;DHT22;4969;52.304;4.968;2023-09-19T16:00:14;21.10;69.47
9861;DHT22;4969;52.304;4.968;2023-09-19T16:02:42;21.45;69.62
9861;DHT22;4969;52.304;4.968;2023-09-19T16:05:10;21.30;67.81
9861;DHT22;4969;52.304;4.968;2023-09-19T16:07:37;20.76;69.04
9861;DHT22;4969;52.304;4.968;2023-09-19T16:10:05;20.71;70.31
9861;DHT22;4969;52.304;4.968;2023-09-19T16:12:32;21.16;69.02
9861;DHT22;4969;52.304;4.968;2023-09-19T16:15:00;21.07;69.48
9861;DHT22;4969;52.304;4.968;2023-09-19T16:17:27;20.93;70.94
9861;DHT22;4969;52.304;4.968;2023-09-19T16:19:54;21.21;68.52
9861;DHT22;4969;52.304;4.968;2023-09-19T16:22:22;21.71;68.43
9861;DHT22;4969;52.304;4.968;2023-09-19T16:24:48;21.73;69.04
9861;DHT22;4969;52.304;4.968;2023-09-19T16:27:15;21.95;68.66
9861;DHT22;4969;52.304;4.968;2023-09-19T16:29:46;21.82;69.65
9861;DHT22;4969;52.304;4.968;2023-09-19T16:32:13;21.31;70.19
9861;DHT22;4969;52.304;4.968;2023-09-19T16:34:40;21.79;69.72
9861;DHT22;4969;52.304;4.968;2023-09-19T16:37:07;21.33;69.34
9861;DHT22;4969;52.304;4.968;2023-09-19T16:39:35;21.33;70.77
9861;DHT22;4969;52.304;4.968;2023-09-19T16:42:02;21.64;69.90
9861;DHT22;4969;52.304;4.968;2023-09-19T16:44:29;22.12;69.13